sensor_id;sensor_type;location;lat;lon;timestamp;pressure;altitude;pressure_sealevel;temperature;humidity
10392;BME280;5242;49.244;6.774;2023-02-27T00:04:59;100145.13;;;-1.01;nan
10392;BME280;5242;49.244;6.774;2023-02-27T00:12:51;100145.66;;;-1.04;nan
10392;BME280;5242;49.244;6.774;2023-02-27T00:20:43;100144.03;;;-1.05;nan
10392;BME280;5242;49.244;6.774;2023-02-27T00:28:35;100133.31;;;-1.11;nan
10392;BME280;5242;49.244;6.774;2023-02-27T00:36:26;100115.16;;;-1.14;nan
10392;BME280;5242;49.244;6.774;2023-02-27T00:44:18;100135.44;;;-1.18;nan
10392;BME280;5242;49.244;6.774;2023-02-27T00:52:10;100141.31;;;-1.21;nan
10392;BME280;5242;49.244;6.774;2023-02-27T01:00:02;100140.22;;;-1.25;nan
10392;BME280;5242;49.244;6.774;2023-02-27T01:07:56;100139.16;;;-1.24;nan
10392;BME280;5242;49.244;6.774;2023-02-27T01:15:48;100134.88;;;-1.25;nan
10392;BME280;5242;49.244;6.774;2023-02-27T01:23:40;100130.03;;;-1.28;nan
10392;BME280;5242;49.244;6.774;2023-02-27T01:31:32;100133.50;;;-1.33;nan
10392;BME280;5242;49.244;6.774;2023-02-27T01:39:24;100134.00;;;-1.36;nan
10392;BME280;5242;49.244;6.774;2023-02-27T01:47:16;100123.03;;;-1.39;nan
10392;BME280;5242;49.244;6.774;2023-02-27T01:55:10;100132.63;;;-1.43;nan
10392;BME280;5242;49.244;6.774;2023-02-27T02:03:11;100130.75;;;-1.48;nan
10392;BME280;5242;49.244;6.774;2023-02-27T02:11:06;100125.13;;;-1.51;nan
10392;BME280;5242;49.244;6.774;2023-02-27T02:27:42;100121.03;;;-1.64;nan
10392;BME280;5242;49.244;6.774;2023-02-27T02:44:01;100129.31;;;-1.66;nan
10392;BME280;5242;49.244;6.774;2023-02-27T02:52:01;100129.28;;;-1.71;nan
10392;BME280;5242;49.244;6.774;2023-02-27T03:00:09;100116.72;;;-1.70;nan
10392;BME280;5242;49.244;6.774;2023-02-27T03:08:17;100131.66;;;-1.75;nan
10392;BME280;5242;49.244;6.774;2023-02-27T03:24:43;100129.47;;;-1.83;nan
10392;BME280;5242;49.244;6.774;2023-02-27T03:40:38;100138.47;;;-1.94;nan
10392;BME280;5242;49.244;6.774;2023-02-27T03:48:35;100148.03;;;-1.98;nan
10392;BME280;5242;49.244;6.774;2023-02-27T03:56:40;100154.69;;;-2.01;nan
10392;BME280;5242;49.244;6.774;2023-02-27T04:04:32;100151.97;;;-2.06;nan
10392;BME280;5242;49.244;6.774;2023-02-27T04:20:41;100176.53;;;-2.09;nan
10392;BME280;5242;49.244;6.774;2023-02-27T04:28:44;100183.72;;;-2.09;nan
10392;BME280;5242;49.244;6.774;2023-02-27T04:36:40;100184.53;;;-2.09;nan
10392;BME280;5242;49.244;6.774;2023-02-27T04:44:36;100189.03;;;-2.14;nan
10392;BME280;5242;49.244;6.774;2023-02-27T04:52:33;100190.88;;;-2.15;nan
10392;BME280;5242;49.244;6.774;2023-02-27T05:00:28;100200.19;;;-2.17;nan
10392;BME280;5242;49.244;6.774;2023-02-27T05:16:35;100211.38;;;-2.21;nan
10392;BME280;5242;49.244;6.774;2023-02-27T05:24:40;100207.91;;;-2.21;nan
10392;BME280;5242;49.244;6.774;2023-02-27T05:32:44;100204.09;;;-2.25;nan
10392;BME280;5242;49.244;6.774;2023-02-27T05:40:48;100204.63;;;-2.28;nan
10392;BME280;5242;49.244;6.774;2023-02-27T05:48:45;100207.56;;;-2.30;nan
10392;BME280;5242;49.244;6.774;2023-02-27T05:56:39;100207.50;;;-2.35;nan
10392;BME280;5242;49.244;6.774;2023-02-27T06:04:33;100216.88;;;-2.32;nan
10392;BME280;5242;49.244;6.774;2023-02-27T06:12:25;100222.72;;;-2.30;nan
10392;BME280;5242;49.244;6.774;2023-02-27T06:20:17;100215.84;;;-2.26;nan
10392;BME280;5242;49.244;6.774;2023-02-27T06:28:09;100222.78;;;-2.25;nan
10392;BME280;5242;49.244;6.774;2023-02-27T06:36:01;100233.38;;;-2.08;nan
10392;BME280;5242;49.244;6.774;2023-02-27T06:43:53;100248.78;;;-1.88;nan
10392;BME280;5242;49.244;6.774;2023-02-27T06:51:46;100254.81;;;-1.71;nan
10392;BME280;5242;49.244;6.774;2023-02-27T06:59:38;100270.97;;;-1.18;nan
10392;BME280;5242;49.244;6.774;2023-02-27T07:07:30;100266.31;;;-0.38;nan
10392;BME280;5242;49.244;6.774;2023-02-27T07:15:27;100278.75;;;0.30;nan
10392;BME280;5242;49.244;6.774;2023-02-27T07:23:18;100285.13;;;1.16;nan
10392;BME280;5242;49.244;6.774;2023-02-27T07:31:10;100286.53;;;2.86;nan
10392;BME280;5242;49.244;6.774;2023-02-27T07:39:04;100295.00;;;3.95;nan
10392;BME280;5242;49.244;6.774;2023-02-27T07:46:56;100279.47;;;4.43;nan
10392;BME280;5242;49.244;6.774;2023-02-27T07:54:47;100275.34;;;5.25;nan
10392;BME280;5242;49.244;6.774;2023-02-27T08:02:39;100272.78;;;6.57;nan
10392;BME280;5242;49.244;6.774;2023-02-27T08:10:31;100261.34;;;7.22;nan
10392;BME280;5242;49.244;6.774;2023-02-27T08:18:23;100253.22;;;7.97;nan
10392;BME280;5242;49.244;6.774;2023-02-27T08:26:15;100267.53;;;7.62;nan
10392;BME280;5242;49.244;6.774;2023-02-27T08:34:07;100265.06;;;8.18;nan
10392;BME280;5242;49.244;6.774;2023-02-27T08:42:01;100282.50;;;9.08;nan
10392;BME280;5242;49.244;6.774;2023-02-27T08:49:53;100290.56;;;9.64;nan
10392;BME280;5242;49.244;6.774;2023-02-27T08:57:46;100287.03;;;9.93;nan
10392;BME280;5242;49.244;6.774;2023-02-27T09:05:39;100281.31;;;9.56;nan
10392;BME280;5242;49.244;6.774;2023-02-27T09:13:31;100285.47;;;10.34;nan
10392;BME280;5242;49.244;6.774;2023-02-27T09:21:24;100279.88;;;10.51;nan
10392;BME280;5242;49.244;6.774;2023-02-27T09:29:16;100286.88;;;9.39;nan
10392;BME280;5242;49.244;6.774;2023-02-27T09:37:08;100295.31;;;9.96;nan
10392;BME280;5242;49.244;6.774;2023-02-27T09:45:03;100292.81;;;10.54;nan
10392;BME280;5242;49.244;6.774;2023-02-27T09:52:56;100293.31;;;11.02;nan
10392;BME280;5242;49.244;6.774;2023-02-27T10:00:53;100302.38;;;11.06;nan
10392;BME280;5242;49.244;6.774;2023-02-27T10:08:50;100289.78;;;11.14;nan
10392;BME280;5242;49.244;6.774;2023-02-27T10:16:47;100303.22;;;11.19;nan
10392;BME280;5242;49.244;6.774;2023-02-27T10:24:48;100296.97;;;11.67;nan
10392;BME280;5242;49.244;6.774;2023-02-27T10:32:43;100297.34;;;10.83;nan
10392;BME280;5242;49.244;6.774;2023-02-27T10:40:38;100305.25;;;11.09;nan
10392;BME280;5242;49.244;6.774;2023-02-27T10:48:31;100312.22;;;11.56;nan
10392;BME280;5242;49.244;6.774;2023-02-27T10:56:26;100328.34;;;10.91;nan
10392;BME280;5242;49.244;6.774;2023-02-27T11:04:28;100332.91;;;11.45;nan
10392;BME280;5242;49.244;6.774;2023-02-27T11:12:26;100316.38;;;10.08;nan
10392;BME280;5242;49.244;6.774;2023-02-27T11:20:38;100309.84;;;10.51;nan
10392;BME280;5242;49.244;6.774;2023-02-27T11:28:34;100306.16;;;11.14;nan
10392;BME280;5242;49.244;6.774;2023-02-27T11:36:44;100262.75;;;11.08;nan
10392;BME280;5242;49.244;6.774;2023-02-27T11:44:38;100288.94;;;10.88;nan
10392;BME280;5242;49.244;6.774;2023-02-27T12:01:28;100310.69;;;12.60;nan
10392;BME280;5242;49.244;6.774;2023-02-27T12:09:35;100286.66;;;11.61;nan
10392;BME280;5242;49.244;6.774;2023-02-27T12:17:39;100301.88;;;11.49;nan
10392;BME280;5242;49.244;6.774;2023-02-27T12:34:09;100282.41;;;10.56;nan
10392;BME280;5242;49.244;6.774;2023-02-27T12:50:55;100262.31;;;8.01;nan
10392;BME280;5242;49.244;6.774;2023-02-27T13:07:00;100263.94;;;6.96;nan
10392;BME280;5242;49.244;6.774;2023-02-27T13:14:54;100266.94;;;6.63;nan
10392;BME280;5242;49.244;6.774;2023-02-27T13:22:57;100254.28;;;6.27;nan
10392;BME280;5242;49.244;6.774;2023-02-27T13:31:05;100264.50;;;5.80;nan
10392;BME280;5242;49.244;6.774;2023-02-27T13:38:57;100267.19;;;6.53;nan
10392;BME280;5242;49.244;6.774;2023-02-27T13:46:50;100263.63;;;6.44;nan
10392;BME280;5242;49.244;6.774;2023-02-27T13:54:42;100266.81;;;5.73;nan
10392;BME280;5242;49.244;6.774;2023-02-27T14:11:09;100255.75;;;6.11;nan
10392;BME280;5242;49.244;6.774;2023-02-27T14:27:20;100269.75;;;4.09;nan
10392;BME280;5242;49.244;6.774;2023-02-27T14:35:14;100276.69;;;3.73;nan
10392;BME280;5242;49.244;6.774;2023-02-27T14:43:19;100284.50;;;3.50;nan
10392;BME280;5242;49.244;6.774;2023-02-27T14:51:14;100250.00;;;3.52;nan
10392;BME280;5242;49.244;6.774;2023-02-27T14:59:24;100281.63;;;3.22;nan
10392;BME280;5242;49.244;6.774;2023-02-27T15:07:20;100289.16;;;3.20;nan
10392;BME280;5242;49.244;6.774;2023-02-27T15:15:18;100291.63;;;3.17;nan
10392;BME280;5242;49.244;6.774;2023-02-27T15:23:25;100282.16;;;3.19;nan
10392;BME280;5242;49.244;6.774;2023-02-27T15:31:20;100295.97;;;3.13;nan
10392;BME280;5242;49.244;6.774;2023-02-27T15:39:16;100300.38;;;3.03;nan
10392;BME280;5242;49.244;6.774;2023-02-27T15:47:12;100296.41;;;2.96;nan
10392;BME280;5242;49.244;6.774;2023-02-27T15:55:13;100291.06;;;2.91;nan
10392;BME280;5242;49.244;6.774;2023-02-27T16:03:06;100299.97;;;2.86;nan
10392;BME280;5242;49.244;6.774;2023-02-27T16:10:59;100317.00;;;2.81;nan
10392;BME280;5242;49.244;6.774;2023-02-27T16:18:53;100328.38;;;2.68;nan
10392;BME280;5242;49.244;6.774;2023-02-27T16:26:50;100332.81;;;2.54;nan
10392;BME280;5242;49.244;6.774;2023-02-27T16:34:43;100336.91;;;2.46;nan
10392;BME280;5242;49.244;6.774;2023-02-27T16:42:37;100342.84;;;2.43;nan
10392;BME280;5242;49.244;6.774;2023-02-27T16:50:40;100347.72;;;2.36;nan
10392;BME280;5242;49.244;6.774;2023-02-27T16:58:33;100365.78;;;2.30;nan
10392;BME280;5242;49.244;6.774;2023-02-27T17:06:25;100370.13;;;2.21;nan
10392;BME280;5242;49.244;6.774;2023-02-27T17:14:17;100380.34;;;2.14;nan
10392;BME280;5242;49.244;6.774;2023-02-27T17:22:09;100385.22;;;2.07;nan
10392;BME280;5242;49.244;6.774;2023-02-27T17:30:02;100395.22;;;1.96;nan
10392;BME280;5242;49.244;6.774;2023-02-27T17:37:54;100399.56;;;1.87;nan
10392;BME280;5242;49.244;6.774;2023-02-27T17:45:46;100415.97;;;1.75;nan
10392;BME280;5242;49.244;6.774;2023-02-27T17:53:38;100416.00;;;1.65;nan
10392;BME280;5242;49.244;6.774;2023-02-27T18:01:30;100426.50;;;1.56;nan
10392;BME280;5242;49.244;6.774;2023-02-27T18:09:22;100435.38;;;1.46;nan
10392;BME280;5242;49.244;6.774;2023-02-27T18:17:14;100442.88;;;1.39;nan
10392;BME280;5242;49.244;6.774;2023-02-27T18:25:06;100443.69;;;1.29;nan
10392;BME280;5242;49.244;6.774;2023-02-27T18:32:58;100447.19;;;1.25;nan
10392;BME280;5242;49.244;6.774;2023-02-27T18:40:50;100451.22;;;1.17;nan
10392;BME280;5242;49.244;6.774;2023-02-27T18:48:43;100449.88;;;1.09;nan
10392;BME280;5242;49.244;6.774;2023-02-27T18:56:35;100451.50;;;1.00;nan
10392;BME280;5242;49.244;6.774;2023-02-27T19:04:31;100453.06;;;0.91;nan
10392;BME280;5242;49.244;6.774;2023-02-27T19:12:23;100443.44;;;0.85;nan
10392;BME280;5242;49.244;6.774;2023-02-27T19:20:14;100443.97;;;0.82;nan
10392;BME280;5242;49.244;6.774;2023-02-27T19:28:09;100448.50;;;0.81;nan
10392;BME280;5242;49.244;6.774;2023-02-27T19:36:09;100448.22;;;0.78;nan
10392;BME280;5242;49.244;6.774;2023-02-27T19:44:02;100448.22;;;0.73;nan
10392;BME280;5242;49.244;6.774;2023-02-27T19:51:54;100452.50;;;0.69;nan
10392;BME280;5242;49.244;6.774;2023-02-27T19:59:45;100457.84;;;0.63;nan
10392;BME280;5242;49.244;6.774;2023-02-27T20:07:37;100464.53;;;0.61;nan
10392;BME280;5242;49.244;6.774;2023-02-27T20:15:30;100457.84;;;0.58;nan
10392;BME280;5242;49.244;6.774;2023-02-27T20:23:22;100472.06;;;0.59;nan
10392;BME280;5242;49.244;6.774;2023-02-27T20:31:16;100457.03;;;0.58;nan
10392;BME280;5242;49.244;6.774;2023-02-27T20:39:11;100466.97;;;0.57;nan
10392;BME280;5242;49.244;6.774;2023-02-27T20:47:03;100454.88;;;0.55;nan
10392;BME280;5242;49.244;6.774;2023-02-27T20:54:55;100456.22;;;0.52;nan
10392;BME280;5242;49.244;6.774;2023-02-27T21:02:47;100451.94;;;0.46;nan
10392;BME280;5242;49.244;6.774;2023-02-27T21:10:38;100452.44;;;0.43;nan
10392;BME280;5242;49.244;6.774;2023-02-27T21:18:30;100461.00;;;0.45;nan
10392;BME280;5242;49.244;6.774;2023-02-27T21:26:27;100460.47;;;0.48;nan
10392;BME280;5242;49.244;6.774;2023-02-27T21:34:28;100456.22;;;0.52;nan
10392;BME280;5242;49.244;6.774;2023-02-27T21:42:20;100443.63;;;0.53;nan
10392;BME280;5242;49.244;6.774;2023-02-27T21:50:12;100441.22;;;0.56;nan
10392;BME280;5242;49.244;6.774;2023-02-27T21:58:07;100441.72;;;0.53;nan
10392;BME280;5242;49.244;6.774;2023-02-27T22:06:01;100434.75;;;0.47;nan
10392;BME280;5242;49.244;6.774;2023-02-27T22:13:53;100428.84;;;0.45;nan
10392;BME280;5242;49.244;6.774;2023-02-27T22:21:45;100432.06;;;0.37;nan
10392;BME280;5242;49.244;6.774;2023-02-27T22:29:37;100432.03;;;0.27;nan
10392;BME280;5242;49.244;6.774;2023-02-27T22:37:29;100422.63;;;0.19;nan
10392;BME280;5242;49.244;6.774;2023-02-27T22:45:21;100426.34;;;0.13;nan
10392;BME280;5242;49.244;6.774;2023-02-27T22:53:12;100428.19;;;0.07;nan
10392;BME280;5242;49.244;6.774;2023-02-27T23:01:09;100420.13;;;0.02;nan
10392;BME280;5242;49.244;6.774;2023-02-27T23:09:02;100432.41;;;-0.07;nan
10392;BME280;5242;49.244;6.774;2023-02-27T23:16:54;100439.81;;;-0.25;nan
10392;BME280;5242;49.244;6.774;2023-02-27T23:24:46;100430.88;;;-0.46;nan
10392;BME280;5242;49.244;6.774;2023-02-27T23:32:37;100440.16;;;-0.58;nan
10392;BME280;5242;49.244;6.774;2023-02-27T23:40:34;100444.34;;;-0.68;nan
10392;BME280;5242;49.244;6.774;2023-02-27T23:48:26;100441.56;;;-0.83;nan
10392;BME280;5242;49.244;6.774;2023-02-27T23:56:23;100445.22;;;-0.94;nan
